Time;durP1;ratioP1;P1;durP2;ratioP2;P2;SDS_P1;SDS_P2;PMS_P1;PMS_P2;Temp;Humidity;BMP_temperature;BMP_pressure;BME280_temperature;BME280_humidity;BME280_pressure;Samples;Min_cycle;Max_cycle;Signal;HPM_P1;HPM_P2
2022/10/28 00:02:45;;;;;;;65.83;44.80;;;;;;;9.25;84.70;101264.61;2184104;81;28704;-58
2022/10/28 00:05:47;;;;;;;67.25;44.55;;;;;;;9.21;84.77;101257.58;2183842;81;31475;-58
2022/10/28 00:08:48;;;;;;;63.35;41.70;;;;;;;9.16;84.63;101259.06;2183894;81;33785;-59
2022/10/28 00:11:50;;;;;;;57.10;38.53;;;;;;;9.12;84.67;101255.61;2183506;81;29801;-59
2022/10/28 00:14:51;;;;;;;58.20;40.10;;;;;;;9.09;84.70;101261.03;2183964;81;27657;-59
2022/10/28 00:17:53;;;;;;;58.45;39.78;;;;;;;9.05;84.58;101254.01;2183964;81;28657;-59
2022/10/28 00:20:58;;;;;;;59.35;40.45;;;;;;;9.02;84.69;101253.23;2183947;81;32139;-58
2022/10/28 00:24:00;;;;;;;60.55;38.95;;;;;;;8.98;84.72;101256.45;2184944;80;33027;-59
2022/10/28 00:27:01;;;;;;;52.75;37.80;;;;;;;8.95;84.60;101257.87;2185957;81;30458;-59
2022/10/28 00:30:04;;;;;;;51.53;37.17;;;;;;;8.91;84.56;101255.75;2185642;81;27665;-58
2022/10/28 00:33:05;;;;;;;48.92;35.33;;;;;;;8.89;84.72;101254.91;2185831;81;29525;-59
2022/10/28 00:36:11;;;;;;;49.88;34.08;;;;;;;8.87;84.61;101252.73;2186047;81;31028;-58
2022/10/28 00:39:20;;;;;;;49.33;35.08;;;;;;;8.84;84.58;101250.14;2185653;81;33310;-59
2022/10/28 00:42:22;;;;;;;61.80;37.83;;;;;;;8.83;84.92;101247.52;2184562;81;30476;-59
2022/10/28 00:45:23;;;;;;;59.23;40.17;;;;;;;8.82;85.37;101239.95;2186038;81;28245;-60
2022/10/28 00:48:25;;;;;;;61.05;40.40;;;;;;;8.86;85.71;101233.61;2186058;81;28489;-58
2022/10/28 00:51:28;;;;;;;58.25;39.78;;;;;;;8.89;85.73;101219.28;2185801;81;31791;-59
2022/10/28 00:54:31;;;;;;;81.63;51.70;;;;;;;8.90;85.86;101222.37;2185893;81;33396;-59
2022/10/28 00:57:36;;;;;;;72.85;46.15;;;;;;;8.89;85.56;101221.95;2185771;81;30044;-62
2022/10/28 01:00:37;;;;;;;;;;;;;;;8.89;85.67;101217.50;2188784;81;27670;-58
2022/10/28 01:03:38;;;;;;;65.62;42.88;;;;;;;8.87;85.44;101219.77;2212414;80;29510;-59
2022/10/28 01:06:41;;;;;;;66.60;44.83;;;;;;;8.81;85.42;101221.72;2187039;81;31332;-58
2022/10/28 01:09:43;;;;;;;64.40;43.38;;;;;;;8.80;85.42;101216.40;2185838;81;33303;-58
2022/10/28 01:12:59;;;;;;;63.30;38.83;;;;;;;8.80;85.67;101218.62;2185972;80;29408;-59
2022/10/28 01:16:15;;;;;;;50.65;37.38;;;;;;;8.78;85.61;101207.10;2210459;80;28202;-59
2022/10/28 01:20:09;;;;;;;52.03;36.98;;;;;;;8.79;85.86;101207.52;2212269;80;29092;-59
2022/10/28 01:23:25;;;;;;;52.48;37.45;;;;;;;8.79;85.67;101199.95;2207435;80;31032;-58
2022/10/28 01:27:07;;;;;;;54.42;37.08;;;;;;;8.78;85.84;101202.20;2222451;79;33043;-58
2022/10/28 01:30:16;;;;;;;48.00;35.17;;;;;;;8.79;86.12;101197.28;2149163;82;29389;-59
2022/10/28 01:33:28;;;;;;;48.38;34.55;;;;;;;8.80;86.25;101192.35;2149380;82;27711;-63
2022/10/28 01:36:49;;;;;;;55.78;37.53;;;;;;;8.83;86.36;101192.27;2103988;84;28702;-59
2022/10/28 01:40:14;;;;;;;54.00;35.50;;;;;;;8.84;86.33;101189.16;2149149;82;32248;-66
2022/10/28 01:43:23;;;;;;;53.05;34.15;;;;;;;8.87;86.53;101194.39;2149165;82;32940;-65
2022/10/28 01:46:59;;;;;;;47.60;33.88;;;;;;;8.87;86.65;101189.94;2089083;85;30136;-60
2022/10/28 01:50:06;;;;;;;52.23;36.90;;;;;;;8.88;86.49;101187.69;2071258;85;27783;-60
2022/10/28 01:53:11;;;;;;;55.15;37.48;;;;;;;8.87;86.55;101187.71;2100040;84;29047;-59
2022/10/28 01:56:16;;;;;;;57.95;37.85;;;;;;;8.87;86.58;101183.26;2151238;82;31837;-61
2022/10/28 01:59:23;;;;;;;54.27;36.75;;;;;;;8.86;86.53;101176.16;2107675;84;32820;-58
2022/10/28 02:02:25;;;;;;;54.55;36.25;;;;;;;8.85;86.49;101165.05;2107495;84;30292;-59
2022/10/28 02:05:38;;;;;;;55.58;35.28;;;;;;;8.83;86.29;101170.03;2151382;82;27840;-58
2022/10/28 02:08:51;;;;;;;54.90;37.70;;;;;;;8.78;86.06;101163.46;2107417;84;29741;-59
2022/10/28 02:12:15;;;;;;;53.45;35.58;;;;;;;8.73;85.94;101171.61;2107475;84;31573;-69
2022/10/28 02:15:32;;;;;;;49.30;34.45;;;;;;;8.71;86.10;101172.59;2150766;82;33009;-58
2022/10/28 02:18:48;;;;;;;56.00;36.17;;;;;;;8.67;86.12;101163.79;2107237;84;29384;-59
2022/10/28 02:22:23;;;;;;;60.20;37.93;;;;;;;8.67;86.44;101162.45;2105984;83;27723;-60
2022/10/28 02:26:00;;;;;;;58.98;36.83;;;;;;;8.67;86.60;101162.45;2185841;81;29899;-59
2022/10/28 02:29:33;;;;;;;55.83;37.65;;;;;;;8.65;86.44;101164.28;2185513;81;32311;-62
2022/10/28 02:32:39;;;;;;;58.80;39.10;;;;;;;8.63;86.59;101166.98;2186326;81;33039;-60
2022/10/28 02:35:57;;;;;;;50.38;36.68;;;;;;;8.63;86.71;101170.13;2185331;81;30072;-59
2022/10/28 02:39:00;;;;;;;54.05;36.58;;;;;;;8.62;86.78;101165.70;2185989;81;27782;-59
2022/10/28 02:42:09;;;;;;;54.90;37.95;;;;;;;8.61;86.82;101170.62;2185890;81;29524;-60
2022/10/28 02:45:16;;;;;;;50.45;36.93;;;;;;;8.60;86.63;101170.20;2185595;80;31481;-58
2022/10/28 02:48:43;;;;;;;54.18;37.42;;;;;;;8.58;86.58;101166.70;2185498;81;33487;-58
2022/10/28 02:51:51;;;;;;;50.78;35.30;;;;;;;8.56;86.58;101168.53;2185805;81;29676;-58
2022/10/28 02:54:56;;;;;;;46.50;35.28;;;;;;;8.54;86.41;101164.58;2212544;80;27711;-58
2022/10/28 02:57:57;;;;;;;47.73;34.38;;;;;;;8.51;86.35;101161.54;2212186;80;29091;-58
2022/10/28 03:00:58;;;;;;;46.68;34.15;;;;;;;8.50;86.43;101153.55;2212398;80;31374;-58
2022/10/28 03:04:00;;;;;;;45.55;34.63;;;;;;;8.48;86.52;101156.28;2186612;81;32393;-58
2022/10/28 03:07:01;;;;;;;53.30;37.85;;;;;;;8.47;86.46;101156.27;2185813;81;30158;-58
2022/10/28 03:10:04;;;;;;;63.95;38.50;;;;;;;8.44;86.56;101162.58;2185540;81;27732;-58
2022/10/28 03:13:06;;;;;;;50.70;35.83;;;;;;;8.43;86.38;101160.83;2185784;81;29723;-58
2022/10/28 03:16:08;;;;;;;53.83;38.67;;;;;;;8.42;86.51;101162.22;2185852;81;31055;-58
2022/10/28 03:19:09;;;;;;;53.92;36.48;;;;;;;8.41;86.63;101155.98;2185897;81;33357;-58
2022/10/28 03:22:10;;;;;;;51.85;35.60;;;;;;;8.42;86.73;101160.41;2185605;80;29323;-58
2022/10/28 03:25:11;;;;;;;47.93;34.75;;;;;;;8.44;86.86;101152.37;2177176;81;27686;-58
2022/10/28 03:28:13;;;;;;;50.28;36.10;;;;;;;8.44;86.73;101149.70;2176166;81;29091;-58
2022/10/28 03:31:15;;;;;;;55.28;36.90;;;;;;;8.43;86.67;101150.14;2176579;81;31058;-59
2022/10/28 03:34:17;;;;;;;53.68;36.75;;;;;;;8.43;86.78;101145.28;2176093;81;33816;-58
2022/10/28 03:37:18;;;;;;;50.43;35.17;;;;;;;8.43;86.89;101156.81;2176133;81;29355;-58
2022/10/28 03:40:19;;;;;;;48.13;36.23;;;;;;;8.45;86.83;101156.77;2176154;81;27697;-59
2022/10/28 03:43:21;;;;;;;55.75;36.23;;;;;;;8.46;87.01;101147.84;2176298;81;29382;-58
2022/10/28 03:46:22;;;;;;;50.73;35.28;;;;;;;8.46;87.06;101150.06;2176364;81;31440;-58
2022/10/28 03:49:23;;;;;;;55.08;38.38;;;;;;;8.47;86.96;101146.48;2176553;81;33290;-59
2022/10/28 03:52:25;;;;;;;55.73;37.50;;;;;;;8.46;86.80;101139.83;2156547;81;29708;-59
2022/10/28 03:55:26;;;;;;;54.10;37.35;;;;;;;8.45;87.00;101133.62;2141902;83;27671;-60
2022/10/28 03:58:29;;;;;;;54.48;37.33;;;;;;;8.47;87.04;101137.58;2142324;83;29005;-59
2022/10/28 04:01:30;;;;;;;50.63;37.53;;;;;;;8.47;87.09;101132.23;2141687;83;31102;-59
2022/10/28 04:04:31;;;;;;;55.45;38.23;;;;;;;8.46;86.91;101138.05;2142030;83;34186;-59
2022/10/28 04:07:34;;;;;;;55.28;36.08;;;;;;;8.45;86.72;101141.64;2141909;82;29701;-59
2022/10/28 04:10:35;;;;;;;54.88;38.53;;;;;;;8.45;86.70;101138.07;2141995;83;27765;-60
2022/10/28 04:13:36;;;;;;;55.25;36.53;;;;;;;8.43;86.90;101130.59;2142026;82;29933;-59
2022/10/28 04:16:38;;;;;;;51.20;37.38;;;;;;;8.43;86.95;101131.92;2142261;83;31021;-60
2022/10/28 04:19:39;;;;;;;53.00;37.03;;;;;;;8.42;86.70;101136.84;2142056;83;34110;-59
2022/10/28 04:22:40;;;;;;;62.48;41.05;;;;;;;8.39;86.60;101134.25;2165246;80;29399;-59
2022/10/28 04:25:42;;;;;;;51.20;36.35;;;;;;;8.35;86.47;101134.80;2185951;81;28172;-59
2022/10/28 04:28:44;;;;;;;51.65;35.65;;;;;;;8.33;86.59;101134.83;2186030;81;29047;-61
2022/10/28 04:31:45;;;;;;;55.60;37.25;;;;;;;8.31;86.45;101135.32;2186023;81;32145;-60
2022/10/28 04:34:46;;;;;;;60.03;40.08;;;;;;;8.29;86.36;101133.15;2186082;81;34037;-59
2022/10/28 04:37:47;;;;;;;59.90;37.78;;;;;;;8.29;86.72;101125.61;2185649;81;29366;-60
2022/10/28 04:40:49;;;;;;;56.35;35.95;;;;;;;8.29;86.79;101116.27;2185743;81;27633;-58
2022/10/28 04:43:50;;;;;;;58.45;37.25;;;;;;;8.31;86.99;101116.63;2186099;81;29838;-58
2022/10/28 04:46:54;;;;;;;54.53;36.63;;;;;;;8.31;87.03;101112.63;2186025;81;31366;-59
2022/10/28 04:49:55;;;;;;;53.70;37.95;;;;;;;8.31;86.88;101106.43;2186708;80;33320;-59
2022/10/28 04:52:56;;;;;;;57.45;37.95;;;;;;;8.31;86.78;101107.77;2192914;80;29085;-60
2022/10/28 04:55:58;;;;;;;51.15;35.48;;;;;;;8.30;86.64;101100.67;2185837;81;27721;-61
2022/10/28 04:59:00;;;;;;;47.48;33.83;;;;;;;8.28;86.59;101107.84;2185623;81;28686;-59
2022/10/28 05:02:02;;;;;;;46.42;36.03;;;;;;;8.26;86.54;101113.23;2185941;81;32086;-60
2022/10/28 05:05:04;;;;;;;51.00;35.15;;;;;;;8.23;86.46;101110.64;2185821;81;34342;-58
2022/10/28 05:08:06;;;;;;;53.30;34.90;;;;;;;8.21;86.48;101106.66;2186025;81;30303;-59
2022/10/28 05:11:08;;;;;;;50.08;34.08;;;;;;;8.20;86.48;101107.58;2185932;81;27714;-58
2022/10/28 05:14:09;;;;;;;52.98;35.88;;;;;;;8.17;86.43;101113.02;2185730;81;28724;-59
2022/10/28 05:17:11;;;;;;;49.35;34.30;;;;;;;8.16;86.40;101113.05;2185813;81;31101;-59
2022/10/28 05:20:15;;;;;;;50.52;36.98;;;;;;;8.13;86.36;101107.78;2157918;81;33324;-59
2022/10/28 05:23:16;;;;;;;55.88;36.00;;;;;;;8.13;86.67;101109.11;2187785;80;29316;-59
2022/10/28 05:26:18;;;;;;;52.17;37.48;;;;;;;8.13;86.67;101106.45;2200142;80;27661;-59
2022/10/28 05:29:20;;;;;;;48.15;35.73;;;;;;;8.12;86.85;101099.36;2200708;80;28737;-59
2022/10/28 05:32:21;;;;;;;51.35;35.25;;;;;;;8.13;86.96;101105.11;2200078;80;32334;-59
2022/10/28 05:35:22;;;;;;;53.95;36.65;;;;;;;8.13;87.05;101103.33;2200345;80;33352;-58
2022/10/28 05:38:24;;;;;;;52.13;38.28;;;;;;;8.14;86.99;101103.76;2200600;80;29329;-59
2022/10/28 05:41:25;;;;;;;60.08;36.28;;;;;;;8.12;86.82;101108.25;2200340;80;27736;-60
2022/10/28 05:44:26;;;;;;;57.20;36.00;;;;;;;8.13;87.01;101102.00;2200609;80;28656;-59
2022/10/28 05:47:28;;;;;;;49.45;34.25;;;;;;;8.13;86.83;101102.44;2200607;80;31579;-65
2022/10/28 05:50:29;;;;;;;47.75;33.15;;;;;;;8.13;86.88;101107.34;2200193;80;32948;-59
2022/10/28 05:53:31;;;;;;;43.05;32.45;;;;;;;8.13;86.83;101098.00;2200135;80;29411;-58
2022/10/28 05:56:32;;;;;;;49.65;32.70;;;;;;;8.14;86.87;101103.76;2200671;80;27693;-58
2022/10/28 05:59:33;;;;;;;48.33;34.58;;;;;;;8.15;87.00;101100.61;2200366;80;28674;-58
2022/10/28 06:02:36;;;;;;;54.30;33.95;;;;;;;8.19;87.40;101100.48;2200461;80;31354;-58
2022/10/28 06:05:40;;;;;;;45.90;30.57;;;;;;;8.24;87.51;101091.48;2200632;80;33870;-59
2022/10/28 06:08:41;;;;;;;50.27;35.07;;;;;;;8.30;87.73;101096.20;2200736;80;29303;-59
2022/10/28 06:11:43;;;;;;;48.17;33.35;;;;;;;8.36;87.91;101095.14;2200282;80;27709;-58
2022/10/28 06:14:44;;;;;;;43.68;31.77;;;;;;;8.45;88.20;101097.58;2200236;80;30153;-58
2022/10/28 06:17:48;;;;;;;46.23;31.80;;;;;;;8.54;88.27;101096.92;2200043;80;33157;-59
2022/10/28 06:20:54;;;;;;;48.43;32.33;;;;;;;8.63;88.56;101096.67;2200240;80;33194;-58
2022/10/28 06:23:55;;;;;;;47.40;32.20;;;;;;;8.72;88.49;101096.39;2196460;80;30582;-59
2022/10/28 06:26:56;;;;;;;47.75;32.28;;;;;;;8.82;88.70;101090.33;2185916;81;27653;-59
2022/10/28 06:29:58;;;;;;;54.05;33.53;;;;;;;8.92;88.66;101094.49;2212517;80;28691;-60
2022/10/28 06:32:59;;;;;;;49.03;33.73;;;;;;;9.03;88.83;101093.28;2212013;80;31053;-59
2022/10/28 06:36:02;;;;;;;53.48;35.15;;;;;;;9.16;88.94;101091.11;2212312;80;32990;-59
2022/10/28 06:39:03;;;;;;;54.40;34.90;;;;;;;9.32;89.18;101084.37;2212502;80;29335;-59
2022/10/28 06:42:08;;;;;;;61.68;34.30;;;;;;;9.50;89.31;101092.25;2212465;80;27681;-59
2022/10/28 06:45:10;;;;;;;64.20;33.98;;;;;;;9.70;89.52;101094.73;2212477;80;29087;-59
2022/10/28 06:48:12;;;;;;;65.45;34.00;;;;;;;9.93;89.79;101100.65;2211968;80;31102;-59
2022/10/28 06:51:15;;;;;;;65.22;33.90;;;;;;;10.15;89.76;101102.59;2196649;80;32984;-59
2022/10/28 06:54:17;;;;;;;59.25;34.18;;;;;;;10.37;89.84;101107.17;2222386;80;30241;-59
2022/10/28 06:57:18;;;;;;;62.48;34.18;;;;;;;10.58;89.80;101117.63;2222472;80;27633;-59
2022/10/28 07:00:20;;;;;;;60.55;33.98;;;;;;;10.78;89.88;101113.72;2212025;80;29543;-59
2022/10/28 07:03:23;;;;;;;44.40;32.20;;;;;;;10.98;89.77;101104.06;2212130;80;27743;-59
2022/10/28 07:06:24;;;;;;;51.58;31.77;;;;;;;11.16;89.66;101113.22;2211898;80;35201;-59
2022/10/28 07:09:26;;;;;;;51.08;31.97;;;;;;;11.34;89.73;101110.27;2212294;80;30160;-59
2022/10/28 07:12:28;;;;;;;50.63;32.00;;;;;;;11.53;89.63;101109.53;2212316;80;27691;-59
2022/10/28 07:15:29;;;;;;;46.18;30.00;;;;;;;11.74;89.72;101105.08;2212506;80;29180;-60
2022/10/28 07:18:30;;;;;;;44.15;31.20;;;;;;;11.98;89.90;101110.37;2212451;80;31804;-59
2022/10/28 07:21:32;;;;;;;44.88;30.35;;;;;;;12.20;89.71;101111.69;2194943;80;32754;-59
2022/10/28 07:24:33;;;;;;;40.65;28.62;;;;;;;12.40;89.32;101116.66;2185623;80;30063;-59
2022/10/28 07:27:34;;;;;;;43.60;28.55;;;;;;;12.63;89.53;101112.06;2185537;81;28416;-59
2022/10/28 07:30:36;;;;;;;36.63;28.12;;;;;;;12.84;89.34;101100.78;2197897;80;28681;-68
2022/10/28 07:33:37;;;;;;;38.20;26.93;;;;;;;13.03;88.94;101105.71;2176644;80;31031;-69
2022/10/28 07:36:39;;;;;;;38.95;27.95;;;;;;;13.16;88.22;101100.63;2202446;80;33009;-65
2022/10/28 07:39:40;;;;;;;41.28;27.90;;;;;;;13.25;87.99;101104.70;2202686;80;29316;-66
2022/10/28 07:42:41;;;;;;;40.20;26.52;;;;;;;13.38;88.02;101099.13;2202300;80;27715;-68
2022/10/28 07:45:42;;;;;;;35.43;26.93;;;;;;;13.49;87.59;101105.36;2202686;80;29803;-65
2022/10/28 07:48:44;;;;;;;38.48;28.77;;;;;;;13.60;87.57;101116.06;2202616;80;31382;-66
2022/10/28 07:51:46;;;;;;;39.92;28.65;;;;;;;13.71;87.63;101089.95;2197307;80;32981;-74
2022/10/28 07:54:47;;;;;;;40.05;28.60;;;;;;;13.71;87.63;101089.95;2202111;80;30195;-68
2022/10/28 07:57:49;;;;;;;40.65;28.65;;;;;;;14.06;87.68;101110.20;2158487;81;27776;-66
2022/10/28 08:00:50;;;;;;;42.93;29.32;;;;;;;14.36;87.10;101097.42;2185720;81;28650;-71
2022/10/28 08:03:51;;;;;;;42.13;28.47;;;;;;;14.36;87.10;101097.42;2146205;83;31448;-69
2022/10/28 08:06:52;;;;;;;36.63;26.05;;;;;;;14.41;86.64;101092.17;2185518;81;33287;-67
2022/10/28 08:09:53;;;;;;;47.53;27.25;;;;;;;14.50;86.35;101099.39;2145791;83;29549;-69
2022/10/28 08:12:57;;;;;;;37.98;25.45;;;;;;;14.58;86.31;101098.03;2184855;81;27639;-67
2022/10/28 08:15:59;;;;;;;35.75;25.40;;;;;;;14.69;86.10;101101.99;2145741;83;29672;-69
2022/10/28 08:19:00;;;;;;;37.10;25.90;;;;;;;14.76;85.93;101093.98;2185468;81;31459;-66
2022/10/28 08:22:02;;;;;;;34.70;25.40;;;;;;;14.85;85.74;101084.52;2145712;82;34093;-67
2022/10/28 08:25:05;;;;;;;36.13;24.32;;;;;;;14.98;85.72;101087.38;2208253;79;29343;-67
2022/10/28 08:28:06;;;;;;;30.10;23.85;;;;;;;15.13;85.84;101085.66;2183688;81;27707;-70
2022/10/28 08:31:08;;;;;;;33.83;22.50;;;;;;;15.28;85.78;101085.28;2144217;83;28673;-67
2022/10/28 08:34:10;;;;;;;34.95;21.35;;;;;;;15.40;85.50;101079.64;2183792;81;31121;-64
2022/10/28 08:37:11;;;;;;;29.85;20.77;;;;;;;15.50;84.96;101078.17;2183764;81;33123;-68
2022/10/28 08:40:12;;;;;;;33.00;20.85;;;;;;;15.58;84.48;101078.58;2144748;82;29639;-66
2022/10/28 08:43:28;;;;;;;27.75;19.73;;;;;;;15.69;84.04;101082.50;2183932;81;27686;-68
2022/10/28 08:46:58;;;;;;;24.85;19.20;;;;;;;15.78;84.31;101076.54;2129667;82;30754;-64
2022/10/28 08:50:06;;;;;;;24.75;18.27;;;;;;;15.92;84.40;101078.47;2126114;83;31935;-71
2022/10/28 08:53:31;;;;;;;26.80;18.40;;;;;;;16.07;84.29;101085.66;2068597;85;33040;-68
2022/10/28 08:56:47;;;;;;;21.05;16.77;;;;;;;16.20;84.20;101084.91;2093783;85;30484;-67
2022/10/28 08:59:51;;;;;;;25.97;17.48;;;;;;;16.27;83.64;101085.39;2093414;85;27772;-68
2022/10/28 09:03:21;;;;;;;25.35;17.45;;;;;;;16.37;83.78;101096.05;2093670;85;29161;-64
2022/10/28 09:06:22;;;;;;;23.47;16.60;;;;;;;16.46;83.48;101087.86;2080615;85;31956;-72
2022/10/28 09:09:23;;;;;;;24.72;16.35;;;;;;;16.57;83.31;101088.05;2097625;84;33375;-63
2022/10/28 09:12:58;;;;;;;23.80;16.60;;;;;;;16.64;83.19;101087.18;2064533;86;29790;-64
2022/10/28 09:16:11;;;;;;;26.42;15.95;;;;;;;16.74;83.21;101085.63;2100388;84;28110;-63
2022/10/28 09:19:49;;;;;;;22.25;14.47;;;;;;;16.86;82.75;101085.34;2100154;84;29748;-64
2022/10/28 09:22:55;;;;;;;21.68;14.05;;;;;;;16.94;82.60;101088.44;2057491;85;32262;-63
2022/10/28 09:26:18;;;;;;;19.67;14.30;;;;;;;17.04;82.47;101088.75;2059331;85;33417;-63
2022/10/28 09:29:48;;;;;;;19.32;13.03;;;;;;;17.14;81.86;101085.83;2109607;84;30502;-63
2022/10/28 09:33:24;;;;;;;18.70;13.22;;;;;;;17.24;81.71;101082.50;2142572;81;27757;-67
2022/10/28 09:36:35;;;;;;;21.40;13.98;;;;;;;17.34;81.47;101090.90;2178491;81;29488;-63
2022/10/28 09:39:44;;;;;;;20.08;13.08;;;;;;;17.43;81.62;101080.83;2178189;81;31828;-63
2022/10/28 09:43:21;;;;;;;21.62;12.45;;;;;;;17.53;81.52;101077.88;2177995;81;32923;-65
2022/10/28 09:46:25;;;;;;;20.20;12.85;;;;;;;17.59;80.89;101073.42;2178534;81;29319;-63
2022/10/28 09:49:35;;;;;;;18.37;11.95;;;;;;;17.66;80.08;101075.70;2178599;81;27706;-66
2022/10/28 09:52:54;;;;;;;14.93;10.55;;;;;;;17.69;80.47;101078.21;2183272;81;28642;-63
2022/10/28 09:55:55;;;;;;;15.55;11.05;;;;;;;17.80;80.42;101086.47;2183937;81;31566;-65
2022/10/28 09:59:00;;;;;;;15.55;9.93;;;;;;;17.87;80.17;101085.59;2183561;81;33849;-73
2022/10/28 10:02:03;;;;;;;16.30;9.38;;;;;;;17.91;79.93;101079.86;2184132;81;30194;-65
2022/10/28 10:05:15;;;;;;;12.85;8.98;;;;;;;17.98;79.99;101081.69;2183888;81;27705;-65
2022/10/28 10:08:18;;;;;;;14.53;9.60;;;;;;;18.04;79.86;101064.13;2183831;81;29075;-64
2022/10/28 10:11:34;;;;;;;12.82;9.45;;;;;;;18.14;79.12;101076.56;2160340;81;31047;-71
2022/10/28 10:14:46;;;;;;;16.77;9.90;;;;;;;18.18;79.41;101065.39;2183942;81;33095;-71
2022/10/28 10:17:48;;;;;;;12.03;8.00;;;;;;;18.27;79.46;101060.31;2183836;81;30208;-70
2022/10/28 10:21:00;;;;;;;11.30;7.78;;;;;;;18.34;79.02;101059.78;2184251;81;27619;-71
2022/10/28 10:23:59;;;;;;;13.62;8.40;;;;;;;18.40;79.17;101055.76;2182600;81;28674;-70
2022/10/28 10:27:12;;;;;;;18.75;8.65;;;;;;;18.48;79.02;101055.22;2177435;80;31419;-64
2022/10/28 10:30:25;;;;;;;12.65;7.90;;;;;;;18.56;78.78;101054.66;2173446;81;34133;-69
2022/10/28 10:33:34;;;;;;;12.50;7.65;;;;;;;18.61;78.29;101056.06;2176345;81;29702;-67
2022/10/28 10:36:35;;;;;;;11.00;6.95;;;;;;;18.69;78.39;101051.45;2176519;81;27756;-65
2022/10/28 10:39:37;;;;;;;14.75;6.95;;;;;;;18.76;78.34;101050.51;2176532;81;29822;-66
2022/10/28 10:42:38;;;;;;;13.53;6.28;;;;;;;18.82;77.86;101048.72;2176274;81;31036;-63
2022/10/28 10:45:41;;;;;;;8.58;6.33;;;;;;;18.88;77.48;101045.54;2176157;81;34236;-62
2022/10/28 10:48:43;;;;;;;12.13;6.05;;;;;;;18.94;77.20;101038.82;2152832;81;29315;-64
2022/10/28 10:52:02;;;;;;;11.50;7.03;;;;;;;19.02;76.49;101041.86;2153827;81;27630;-67
2022/10/28 10:55:07;;;;;;;9.55;5.92;;;;;;;19.09;76.81;101036.84;2141780;82;28649;-66
2022/10/28 10:58:19;;;;;;;8.50;5.97;;;;;;;19.15;76.68;101029.60;2141533;83;31073;-68
2022/10/28 11:01:25;;;;;;;15.90;8.93;;;;;;;19.23;76.68;101029.03;2141673;82;33020;-64
2022/10/28 11:04:27;;;;;;;14.70;8.33;;;;;;;19.32;76.67;101032.41;2141778;83;29335;-65
2022/10/28 11:07:29;;;;;;;11.48;5.28;;;;;;;19.41;76.40;101029.02;2142317;82;27714;-65
2022/10/28 11:10:33;;;;;;;9.15;4.30;;;;;;;19.48;76.71;101019.90;2141680;82;28725;-69
2022/10/28 11:13:35;;;;;;;14.70;4.43;;;;;;;19.58;76.12;101024.14;2141957;82;31841;-64
2022/10/28 11:16:53;;;;;;;8.55;4.22;;;;;;;19.66;76.17;101024.41;2141362;83;34135;-70
2022/10/28 11:20:04;;;;;;;5.62;3.62;;;;;;;19.75;75.62;101021.48;2143006;81;29334;-65
2022/10/28 11:23:50;;;;;;;7.87;3.67;;;;;;;19.83;75.28;101025.84;2169783;81;27624;-69
2022/10/28 11:27:19;;;;;;;11.15;3.60;;;;;;;19.94;75.09;101018.73;2191939;80;29115;-65
2022/10/28 11:30:35;;;;;;;5.15;3.27;;;;;;;20.02;74.51;101013.06;2199767;80;31087;-63
2022/10/28 11:33:45;;;;;;;10.35;2.87;;;;;;;20.11;74.04;101006.51;2148407;81;33397;-62
2022/10/28 11:37:17;;;;;;;8.93;3.25;;;;;;;20.19;73.04;100998.11;2110836;84;29351;-62
2022/10/28 11:40:36;;;;;;;6.95;3.37;;;;;;;20.26;73.05;100983.56;2148402;82;27685;-66
2022/10/28 11:43:54;;;;;;;9.00;2.77;;;;;;;20.37;72.99;100996.28;2110154;84;28685;-63
2022/10/28 11:47:17;;;;;;;5.42;3.20;;;;;;;20.44;72.56;100997.53;2148311;82;32375;-66
2022/10/28 11:51:00;;;;;;;5.70;2.77;;;;;;;20.48;71.76;100994.94;2108119;84;33035;-64
2022/10/28 11:54:31;;;;;;;4.12;2.90;;;;;;;20.54;71.51;100999.02;2066453;85;29475;-64
2022/10/28 11:58:27;;;;;;;8.43;3.40;;;;;;;20.58;71.29;100984.66;2034542;86;27760;-61
2022/10/28 12:01:46;;;;;;;7.05;3.40;;;;;;;20.63;70.36;100987.37;2068814;86;28694;-64
2022/10/28 12:05:01;;;;;;;9.65;3.05;;;;;;;20.68;70.36;100975.25;2067586;86;31517;-63
2022/10/28 12:08:35;;;;;;;8.95;3.15;;;;;;;20.71;70.30;100967.68;1969464;90;32964;-64
2022/10/28 12:11:58;;;;;;;5.50;2.47;;;;;;;20.75;70.08;100966.48;1969050;90;30446;-61
2022/10/28 12:15:40;;;;;;;12.58;2.80;;;;;;;20.79;69.58;100963.00;1865751;94;28185;-66
2022/10/28 12:18:53;;;;;;;5.53;2.70;;;;;;;20.83;69.00;100956.83;1857107;94;28671;-70
2022/10/28 12:22:22;;;;;;;11.18;3.08;;;;;;;20.87;68.85;100958.28;1864230;94;31047;-63
2022/10/28 12:25:30;;;;;;;8.83;3.45;;;;;;;20.91;69.35;100962.48;1872916;93;33821;-67
2022/10/28 12:28:41;;;;;;;10.43;2.87;;;;;;;20.98;68.64;100951.94;1930866;91;29397;-66
2022/10/28 12:31:47;;;;;;;7.65;3.55;;;;;;;21.02;68.22;100947.98;1999384;88;27789;-65
2022/10/28 12:35:02;;;;;;;7.90;2.85;;;;;;;21.04;68.11;100948.20;2004457;88;28666;-66
2022/10/28 12:38:20;;;;;;;8.28;2.70;;;;;;;21.07;67.71;100944.38;1940585;91;31068;-68
2022/10/28 12:41:26;;;;;;;5.10;2.90;;;;;;;21.08;67.43;100937.42;1965919;90;34183;-65
2022/10/28 12:44:28;;;;;;;8.93;2.40;;;;;;;21.13;66.92;100932.09;1982122;87;29320;-67
2022/10/28 12:47:58;;;;;;;4.97;2.95;;;;;;;21.14;66.55;100919.69;2079402;84;27805;-66
2022/10/28 12:51:10;;;;;;;6.80;2.90;;;;;;;21.16;66.47;100920.94;2089892;79;29905;-70
2022/10/28 12:54:33;;;;;;;7.35;4.00;;;;;;;21.18;66.00;100925.77;2222378;78;31911;-66
2022/10/28 12:57:36;;;;;;;8.63;3.65;;;;;;;21.20;65.57;100925.11;2226316;78;33057;-66
2022/10/28 13:00:42;;;;;;;9.58;5.50;;;;;;;21.21;64.86;100920.03;2195241;78;29774;-66
2022/10/28 13:03:43;;;;;;;4.22;2.42;;;;;;;21.21;64.65;100920.03;2218470;78;27735;-66
2022/10/28 13:07:08;;;;;;;6.00;2.95;;;;;;;21.23;63.54;100916.69;2242442;78;29165;-66
2022/10/28 13:10:40;;;;;;;18.10;3.02;;;;;;;21.22;63.10;100912.22;2236934;78;31465;-66
2022/10/28 13:14:09;;;;;;;5.60;2.30;;;;;;;21.23;62.77;100916.20;2241834;78;33015;-68
2022/10/28 13:17:57;;;;;;;5.22;2.25;;;;;;;21.24;62.42;100908.39;2236308;78;29352;-67
2022/10/28 13:21:45;;;;;;;8.50;3.30;;;;;;;21.24;62.04;100912.96;2228363;78;27759;-65
2022/10/28 13:25:38;;;;;;;5.62;2.65;;;;;;;21.25;62.14;100908.77;2238378;78;28683;-66
2022/10/28 13:28:48;;;;;;;10.75;2.27;;;;;;;21.27;61.87;100907.26;2240331;78;31057;-66
2022/10/28 13:31:50;;;;;;;7.62;2.80;;;;;;;21.26;61.63;100890.54;2233152;78;33662;-68
2022/10/28 13:34:52;;;;;;;8.33;2.42;;;;;;;21.27;61.39;100897.72;2229583;78;29338;-66
2022/10/28 13:37:54;;;;;;;7.58;2.92;;;;;;;21.24;61.20;100889.32;2231915;78;27690;-65
2022/10/28 13:41:01;;;;;;;8.50;2.33;;;;;;;21.24;60.84;100893.41;2239419;78;29434;-67
2022/10/28 13:44:22;;;;;;;12.37;2.80;;;;;;;21.23;61.05;100884.86;2223996;78;31450;-68
2022/10/28 13:47:36;;;;;;;6.08;2.08;;;;;;;21.23;60.58;100880.77;2244048;78;35103;-67
2022/10/28 13:50:37;;;;;;;7.67;3.10;;;;;;;21.20;60.37;100879.67;2227812;78;29335;-71
2022/10/28 13:53:55;;;;;;;7.28;2.85;;;;;;;21.18;60.40;100879.45;2224699;78;27697;-67
2022/10/28 13:57:22;;;;;;;6.10;2.98;;;;;;;21.16;59.67;100880.92;2233208;78;29032;-68
2022/10/28 14:00:28;;;;;;;4.03;2.25;;;;;;;21.15;59.91;100886.52;2232101;78;31441;-68
2022/10/28 14:03:30;;;;;;;8.43;2.77;;;;;;;21.14;59.59;100884.78;2238165;78;32876;-66
2022/10/28 14:06:32;;;;;;;6.80;3.55;;;;;;;21.12;59.55;100897.16;2240759;78;30245;-68
2022/10/28 14:09:35;;;;;;;10.20;5.25;;;;;;;21.11;59.82;100900.88;2233817;78;28360;-63
2022/10/28 14:12:49;;;;;;;10.78;3.62;;;;;;;21.08;59.95;100892.47;2234623;78;28674;-65
2022/10/28 14:16:17;;;;;;;6.90;3.03;;;;;;;21.07;60.24;100897.55;2228936;78;31067;-66
2022/10/28 14:19:21;;;;;;;10.82;3.83;;;;;;;21.03;60.50;100894.71;2223733;78;33625;-67
2022/10/28 14:22:29;;;;;;;9.60;4.58;;;;;;;20.97;60.45;100895.25;2192502;80;30461;-67
2022/10/28 14:25:55;;;;;;;13.05;4.90;;;;;;;20.92;60.85;100894.77;2199838;80;27664;-65
2022/10/28 14:28:56;;;;;;;11.40;4.40;;;;;;;20.87;60.96;100891.55;2192534;80;28706;-67